Uncle Sam, Louisiana
Current Conditions -  °F | °C
As of 10:15 AM on Wednesday 26 Nov 2014 (Local Time) from KL38 Reporting Station
Clear Clear  
Wind Chill: 58°   Ceiling: Unl
Heat Index: 58°   Visibility: 10mi
Dew Point: 37°   Wind: 8mph
Humidity: 46%   Direction: 160°SSE
Pressure: 30.26"   Gusts: NA
Location:  30.02°N, 90.82°W
Report Text: KL38 261615Z AUTO 16007KT 10SM CLR 15/03 A3026 RMK AO2 T01450029
Loading
Personal Weather Stations






























Interactive Weather Map New forecast layout! Learn more

10-Day Weather Forecast

Advertisements
Track Severe Weather on mobile